createdAt,value
2024-04-23T00:00:54.885Z,100.00
2024-04-23T00:03:57.361Z,100.00
2024-04-23T00:07:01.984Z,100.00
2024-04-23T00:10:04.648Z,100.00
2024-04-23T00:13:07.091Z,100.00
2024-04-23T00:16:09.594Z,100.00
2024-04-23T00:19:12.089Z,100.00
2024-04-23T00:22:14.477Z,100.00
2024-04-23T00:25:16.948Z,100.00
2024-04-23T00:28:19.479Z,100.00
2024-04-23T00:31:23.771Z,100.00
2024-04-23T00:34:26.442Z,100.00
2024-04-23T00:37:28.932Z,100.00
2024-04-23T00:40:32.382Z,100.00
2024-04-23T00:43:34.966Z,100.00
2024-04-23T00:46:40.221Z,100.00
2024-04-23T00:49:43.054Z,100.00
2024-04-23T00:52:45.831Z,100.00
2024-04-23T00:55:48.385Z,100.00
2024-04-23T00:58:50.915Z,100.00
2024-04-23T01:01:54.430Z,100.00
2024-04-23T01:04:57.136Z,100.00
2024-04-23T01:07:59.690Z,100.00
2024-04-23T01:11:03.802Z,100.00
2024-04-23T01:14:07.003Z,100.00
2024-04-23T01:17:11.371Z,100.00
2024-04-23T01:20:14.797Z,100.00
2024-04-23T01:23:23.516Z,100.00
2024-04-23T01:26:27.205Z,100.00
2024-04-23T01:29:35.939Z,100.00
2024-04-23T01:32:40.941Z,100.00
2024-04-23T01:35:44.026Z,100.00
2024-04-23T01:38:47.968Z,100.00
2024-04-23T01:41:51.016Z,100.00
2024-04-23T01:44:54.901Z,100.00
2024-04-23T01:47:57.914Z,100.00
2024-04-23T01:51:00.542Z,100.00
2024-04-23T01:54:03.294Z,100.00
2024-04-23T01:57:09.065Z,100.00
2024-04-23T02:00:16.537Z,100.00
2024-04-23T02:03:21.747Z,100.00
2024-04-23T02:06:29.103Z,100.00
2024-04-23T02:09:32.629Z,100.00
2024-04-23T02:12:37.773Z,100.00
2024-04-23T02:15:40.465Z,100.00
2024-04-23T02:18:43.118Z,100.00
2024-04-23T02:21:45.595Z,100.00
2024-04-23T02:24:48.111Z,100.00
2024-04-23T02:27:50.857Z,100.00
2024-04-23T02:30:53.404Z,100.00
2024-04-23T02:33:55.840Z,100.00
2024-04-23T02:36:58.310Z,100.00
2024-04-23T02:40:03.537Z,100.00
2024-04-23T02:43:07.795Z,100.00
2024-04-23T02:46:10.279Z,100.00
2024-04-23T02:49:12.932Z,100.00
2024-04-23T02:52:15.350Z,100.00
2024-04-23T02:55:17.763Z,100.00
2024-04-23T02:58:20.190Z,100.00
2024-04-23T03:01:22.689Z,100.00
2024-04-23T03:04:25.309Z,100.00
2024-04-23T03:07:27.722Z,100.00
2024-04-23T03:10:30.243Z,100.00
2024-04-23T03:13:32.760Z,100.00
2024-04-23T03:16:36.803Z,100.00
2024-04-23T03:19:39.331Z,100.00
2024-04-23T03:22:41.882Z,100.00
2024-04-23T03:25:44.375Z,100.00
2024-04-23T03:28:46.867Z,100.00
2024-04-23T03:32:00.631Z,100.00
2024-04-23T03:35:03.322Z,100.00
2024-04-23T03:38:06.925Z,100.00
2024-04-23T03:41:11.749Z,100.00
2024-04-23T03:44:14.253Z,100.00
2024-04-23T03:47:16.722Z,100.00
2024-04-23T03:50:19.209Z,100.00
2024-04-23T03:53:21.619Z,100.00
2024-04-23T03:56:24.184Z,100.00
2024-04-23T03:59:29.495Z,100.00
2024-04-23T04:02:50.945Z,100.00
2024-04-23T04:06:05.620Z,100.00
2024-04-23T04:09:08.428Z,100.00
2024-04-23T04:12:10.888Z,100.00
2024-04-23T04:15:13.464Z,100.00
2024-04-23T04:18:16.004Z,100.00
2024-04-23T04:21:18.475Z,100.00
2024-04-23T04:24:20.858Z,100.00
2024-04-23T04:27:23.416Z,100.00
2024-04-23T04:30:25.853Z,100.00
2024-04-23T04:33:28.367Z,100.00
2024-04-23T04:36:30.877Z,100.00
2024-04-23T04:39:38.572Z,100.00
2024-04-23T04:42:41.120Z,100.00
2024-04-23T04:45:46.745Z,100.00
2024-04-23T04:48:49.291Z,100.00
2024-04-23T04:51:51.833Z,100.00
2024-04-23T04:54:54.403Z,100.00
2024-04-23T04:57:56.908Z,100.00
2024-04-23T05:00:59.523Z,100.00
2024-04-23T05:04:04.462Z,100.00
2024-04-23T05:07:07.042Z,100.00
2024-04-23T05:10:09.577Z,100.00
2024-04-23T05:13:32.352Z,100.00
2024-04-23T05:16:35.049Z,100.00
2024-04-23T05:19:37.664Z,100.00
2024-04-23T05:22:40.294Z,100.00
2024-04-23T05:25:43.114Z,100.00
2024-04-23T05:28:45.790Z,100.00
2024-04-23T05:32:07.356Z,100.00
2024-04-23T05:35:09.934Z,100.00
2024-04-23T05:38:15.133Z,100.00
2024-04-23T05:41:19.302Z,100.00
2024-04-23T05:44:23.588Z,100.00
2024-04-23T05:47:26.884Z,100.00
2024-04-23T05:51:07.315Z,100.00
2024-04-23T05:54:47.694Z,100.00
2024-04-23T05:57:52.714Z,100.00
2024-04-23T06:01:00.354Z,100.00
2024-04-23T06:04:05.588Z,100.00
2024-04-23T06:07:09.267Z,100.00
2024-04-23T06:10:13.512Z,100.00
2024-04-23T06:13:16.994Z,100.00
2024-04-23T06:16:19.923Z,100.00
2024-04-23T06:19:28.226Z,100.00
2024-04-23T06:22:40.239Z,100.00
2024-04-23T06:25:43.021Z,100.00
2024-04-23T06:28:45.624Z,100.00
2024-04-23T06:31:50.167Z,95.79
2024-04-23T06:34:52.884Z,81.29
2024-04-23T06:37:55.367Z,80.84
2024-04-23T06:41:03.129Z,75.51
2024-04-23T06:44:05.674Z,81.28
2024-04-23T06:47:08.197Z,76.56
2024-04-23T06:50:10.719Z,79.96
2024-04-23T06:53:13.465Z,80.37
2024-04-23T06:56:16.000Z,82.94
2024-04-23T06:59:18.656Z,84.01
2024-04-23T07:02:21.186Z,82.62
2024-04-23T07:05:23.775Z,77.76
2024-04-23T07:08:26.299Z,70.72
2024-04-23T07:11:28.893Z,69.72
2024-04-23T07:14:31.531Z,66.06
2024-04-23T07:17:34.157Z,63.79
2024-04-23T07:20:37.387Z,66.98
2024-04-23T07:23:40.572Z,70.94
2024-04-23T07:26:43.765Z,67.17
2024-04-23T07:29:46.230Z,65.76
2024-04-23T07:32:53.896Z,61.81
2024-04-23T07:35:58.596Z,65.19
2024-04-23T07:39:01.076Z,63.18
2024-04-23T07:42:03.667Z,64.30
2024-04-23T07:45:07.230Z,60.36
2024-04-23T07:48:10.092Z,61.20
2024-04-23T07:51:12.637Z,62.73
2024-04-23T07:54:15.413Z,68.44
2024-04-23T07:57:19.398Z,74.21
2024-04-23T08:00:24.493Z,71.56
2024-04-23T08:03:27.062Z,76.38
2024-04-23T08:06:29.580Z,73.14
2024-04-23T08:09:32.073Z,69.09
2024-04-23T08:12:34.571Z,65.79
2024-04-23T08:15:37.091Z,65.73
2024-04-23T08:18:39.882Z,64.43
2024-04-23T08:21:43.529Z,67.36
2024-04-23T08:24:46.640Z,69.85
2024-04-23T08:28:04.126Z,64.71
2024-04-23T08:31:06.590Z,67.38
2024-04-23T08:34:09.082Z,66.14
2024-04-23T08:37:11.593Z,62.29
2024-04-23T08:40:14.178Z,60.15
2024-04-23T08:43:26.458Z,67.27
2024-04-23T08:46:29.199Z,69.05
2024-04-23T08:49:35.379Z,68.66
2024-04-23T09:01:14.536Z,58.72
2024-04-23T09:04:56.141Z,57.17
2024-04-23T09:08:22.350Z,54.25
2024-04-23T09:12:24.175Z,61.56
2024-04-23T09:16:27.182Z,62.18
2024-04-23T09:19:39.424Z,57.33
2024-04-23T09:22:57.591Z,61.15
2024-04-23T09:26:18.408Z,64.35
2024-04-23T09:29:33.518Z,55.08
2024-04-23T09:32:50.175Z,56.29
2024-04-23T09:36:15.429Z,54.46
2024-04-23T09:39:22.741Z,54.86
2024-04-23T09:42:31.195Z,51.24
2024-04-23T09:45:36.539Z,50.24
2024-04-23T09:48:46.416Z,51.93
2024-04-23T09:51:52.441Z,47.85
2024-04-23T09:54:59.666Z,48.30
2024-04-23T09:58:04.854Z,53.55
2024-04-23T10:01:10.188Z,43.92
2024-04-23T10:04:22.435Z,46.64
2024-04-23T10:07:30.128Z,45.52
2024-04-23T10:10:49.158Z,43.33
2024-04-23T10:13:59.580Z,42.86
2024-04-23T10:17:18.234Z,46.56
2024-04-23T10:20:25.230Z,50.80
2024-04-23T10:23:32.756Z,47.51
2024-04-23T10:26:47.053Z,40.97
2024-04-23T10:29:50.912Z,41.89
2024-04-23T10:33:00.564Z,41.53
2024-04-23T10:36:03.488Z,40.80
2024-04-23T10:39:07.573Z,41.75
2024-04-23T10:42:10.403Z,41.40
2024-04-23T10:45:15.590Z,42.74
2024-04-23T10:48:28.738Z,47.73
2024-04-23T10:51:37.543Z,43.63
2024-04-23T10:54:48.827Z,45.60
2024-04-23T10:57:54.726Z,46.68
2024-04-23T11:01:04.311Z,45.81
2024-04-23T11:04:09.674Z,43.23
2024-04-23T11:07:25.687Z,41.39
2024-04-23T11:10:31.273Z,40.35
2024-04-23T11:13:44.405Z,40.79
2024-04-23T11:21:09.000Z,46.75
2024-04-23T11:24:15.872Z,48.92
2024-04-23T11:27:22.910Z,51.78
2024-04-23T11:30:29.275Z,46.65
2024-04-23T11:33:44.653Z,44.20
2024-04-23T11:37:00.543Z,45.42
2024-04-23T11:40:09.675Z,49.84
2024-04-23T11:43:20.603Z,45.30
2024-04-23T11:46:40.948Z,50.45
2024-04-23T11:50:22.657Z,44.00
2024-04-23T11:54:16.118Z,46.25
2024-04-23T11:57:54.362Z,42.19
2024-04-23T12:00:57.863Z,46.44
2024-04-23T12:04:01.084Z,48.93
2024-04-23T12:07:17.618Z,45.73
2024-04-23T12:10:34.714Z,48.46
2024-04-23T12:13:56.702Z,56.15
2024-04-23T12:17:09.942Z,56.68
2024-04-23T12:20:24.404Z,59.39
2024-04-23T12:24:07.165Z,58.50
2024-04-23T12:27:17.704Z,61.80
2024-04-23T12:30:29.471Z,60.67
2024-04-23T12:34:00.541Z,55.50
2024-04-23T12:37:10.562Z,54.36
2024-04-23T12:40:22.119Z,56.75
2024-04-23T12:43:33.884Z,61.54
2024-04-23T12:46:51.196Z,58.62
2024-04-23T12:49:58.220Z,56.99
2024-04-23T12:53:16.077Z,53.64
2024-04-23T12:56:39.735Z,57.58
2024-04-23T13:00:03.351Z,62.72
2024-04-23T13:03:29.909Z,58.30
2024-04-23T13:06:35.607Z,56.39
2024-04-23T13:09:43.131Z,60.75
2024-04-23T13:12:48.083Z,63.11
2024-04-23T13:15:55.346Z,58.02
2024-04-23T13:18:59.238Z,57.46
2024-04-23T13:22:05.023Z,56.25
2024-04-23T13:25:11.068Z,60.85
2024-04-23T13:28:15.445Z,57.25
2024-04-23T13:31:19.861Z,61.24
2024-04-23T13:34:22.854Z,59.19
2024-04-23T13:37:30.172Z,61.37
2024-04-23T13:40:38.250Z,61.04
2024-04-23T13:43:50.185Z,58.77
2024-04-23T13:46:58.060Z,61.61
2024-04-23T13:50:00.757Z,59.35
2024-04-23T13:53:03.478Z,57.02
2024-04-23T13:56:12.927Z,59.73
2024-04-23T13:59:21.891Z,59.46
2024-04-23T14:02:27.224Z,60.96
2024-04-23T14:05:32.862Z,61.17
2024-04-23T14:08:36.043Z,62.34
2024-04-23T14:11:47.115Z,60.23
2024-04-23T14:14:59.744Z,58.30
2024-04-23T14:18:05.308Z,60.64
2024-04-23T14:21:08.374Z,61.66
2024-04-23T14:24:56.450Z,60.57
2024-04-23T14:28:06.854Z,60.94
2024-04-23T14:31:27.365Z,57.53
2024-04-23T14:34:30.159Z,59.99
2024-04-23T14:37:38.785Z,63.40
2024-04-23T14:41:04.615Z,60.03
2024-04-23T14:44:21.611Z,63.80
2024-04-23T14:47:34.502Z,60.37
2024-04-23T14:50:40.329Z,61.77
2024-04-23T14:53:53.084Z,60.13
2024-04-23T14:57:18.878Z,63.30
2024-04-23T15:00:27.233Z,59.83
2024-04-23T15:03:32.781Z,58.70
2024-04-23T15:06:35.366Z,62.36
2024-04-23T15:09:37.823Z,61.33
2024-04-23T15:12:40.345Z,58.74
2024-04-23T15:15:42.821Z,58.42
2024-04-23T15:18:45.388Z,59.05
2024-04-23T15:21:47.927Z,59.81
2024-04-23T15:24:51.168Z,63.01
2024-04-23T15:27:54.087Z,64.00
2024-04-23T15:31:06.875Z,62.99
2024-04-23T15:34:09.884Z,66.28
2024-04-23T15:37:12.384Z,67.39
2024-04-23T15:40:14.836Z,62.42
2024-04-23T15:43:17.314Z,64.83
2024-04-23T15:46:20.478Z,64.03
2024-04-23T15:49:24.137Z,63.43
2024-04-23T15:52:26.569Z,67.51
2024-04-23T15:55:28.995Z,67.40
2024-04-23T15:58:32.070Z,67.00
2024-04-23T16:01:36.131Z,67.22
2024-04-23T16:04:39.409Z,68.22
2024-04-23T16:07:42.495Z,69.16
2024-04-23T16:10:45.616Z,68.96
2024-04-23T16:13:48.650Z,69.75
2024-04-23T16:16:51.629Z,68.37
2024-04-23T16:19:54.205Z,71.48
2024-04-23T16:22:59.328Z,70.56
2024-04-23T16:26:08.380Z,70.62
2024-04-23T16:29:11.654Z,72.37
2024-04-23T16:32:14.176Z,73.13
2024-04-23T16:35:17.196Z,74.51
2024-04-23T16:38:20.241Z,74.16
2024-04-23T16:41:23.084Z,76.34
2024-04-23T16:44:25.589Z,76.55
2024-04-23T16:47:29.856Z,77.30
2024-04-23T16:50:34.700Z,76.42
2024-04-23T16:53:40.595Z,79.06
2024-04-23T16:56:43.113Z,79.17
2024-04-23T16:59:46.337Z,75.94
2024-04-23T17:02:48.796Z,78.66
2024-04-23T17:05:51.435Z,80.76
2024-04-23T17:08:53.948Z,80.39
2024-04-23T17:11:56.446Z,80.19
2024-04-23T17:14:59.354Z,80.88
2024-04-23T17:18:02.051Z,80.86
2024-04-23T17:21:14.989Z,81.69
2024-04-23T17:24:17.591Z,81.22
2024-04-23T17:27:20.128Z,81.18
2024-04-23T17:30:23.301Z,82.49
2024-04-23T17:33:27.019Z,81.76
2024-04-23T17:36:33.482Z,81.33
2024-04-23T17:39:38.705Z,80.85
2024-04-23T17:42:44.697Z,81.92
2024-04-23T17:45:48.720Z,80.95
2024-04-23T17:48:54.415Z,82.59
2024-04-23T17:51:57.896Z,81.72
2024-04-23T17:55:01.352Z,81.94
2024-04-23T17:58:08.116Z,81.51
2024-04-23T18:01:14.177Z,80.93
2024-04-23T18:04:19.723Z,79.46
2024-04-23T18:07:29.675Z,80.92
2024-04-23T18:10:37.028Z,80.48
2024-04-23T18:13:41.182Z,81.03
2024-04-23T18:16:44.328Z,82.14
2024-04-23T18:19:53.117Z,82.43
2024-04-23T18:23:06.805Z,82.97
2024-04-23T18:26:12.710Z,82.53
2024-04-23T18:29:18.209Z,84.42
2024-04-23T18:32:26.559Z,86.20
2024-04-23T18:35:30.844Z,86.98
2024-04-23T18:38:43.110Z,87.79
2024-04-23T18:41:46.900Z,90.39
2024-04-23T18:44:52.259Z,90.12
2024-04-23T18:48:00.137Z,90.46
2024-04-23T18:51:12.668Z,90.00
2024-04-23T18:54:19.371Z,91.87
2024-04-23T18:57:29.389Z,94.35
2024-04-23T19:00:41.572Z,94.82
2024-04-23T19:03:52.956Z,98.17
2024-04-23T19:06:59.465Z,100.00
2024-04-23T19:10:03.339Z,99.51
2024-04-23T19:13:12.466Z,100.00
2024-04-23T19:16:15.934Z,100.00
2024-04-23T19:19:20.244Z,100.00
2024-04-23T19:22:26.619Z,100.00
2024-04-23T19:25:33.864Z,100.00
2024-04-23T19:28:40.272Z,100.00
2024-04-23T19:31:43.619Z,100.00
2024-04-23T19:34:48.107Z,100.00
2024-04-23T19:37:59.325Z,100.00
2024-04-23T19:41:18.959Z,100.00
2024-04-23T19:44:31.219Z,100.00
2024-04-23T19:47:46.123Z,100.00
2024-04-23T19:50:58.398Z,100.00
2024-04-23T19:54:03.957Z,100.00
2024-04-23T19:57:10.184Z,100.00
2024-04-23T20:00:20.690Z,100.00
2024-04-23T20:03:36.539Z,100.00
2024-04-23T20:06:42.225Z,100.00
2024-04-23T20:09:53.622Z,100.00
2024-04-23T20:12:58.226Z,100.00
2024-04-23T20:16:01.991Z,100.00
2024-04-23T20:19:05.122Z,100.00
2024-04-23T20:22:08.931Z,100.00
2024-04-23T20:25:14.413Z,100.00
2024-04-23T20:28:17.245Z,100.00
2024-04-23T20:31:36.666Z,100.00
2024-04-23T20:34:45.025Z,100.00
2024-04-23T20:37:49.126Z,100.00
2024-04-23T20:41:07.145Z,100.00
2024-04-23T20:45:04.162Z,100.00
2024-04-23T20:48:08.130Z,100.00
2024-04-23T20:51:13.165Z,100.00
2024-04-23T20:54:16.362Z,100.00
2024-04-23T20:57:21.207Z,100.00
2024-04-23T21:00:23.812Z,100.00
2024-04-23T21:03:26.411Z,100.00
2024-04-23T21:06:29.212Z,100.00
2024-04-23T21:09:31.628Z,100.00
2024-04-23T21:12:34.137Z,100.00
2024-04-23T21:15:37.664Z,100.00
2024-04-23T21:18:41.902Z,100.00
2024-04-23T21:21:44.367Z,100.00
2024-04-23T21:24:46.837Z,100.00
2024-04-23T21:27:49.306Z,100.00
2024-04-23T21:30:59.587Z,100.00
2024-04-23T21:34:02.076Z,100.00
2024-04-23T21:37:04.527Z,100.00
2024-04-23T21:40:07.479Z,100.00
2024-04-23T21:43:10.063Z,100.00
2024-04-23T21:46:15.930Z,100.00
2024-04-23T21:49:18.447Z,100.00
2024-04-23T21:52:31.287Z,100.00
2024-04-23T21:55:42.118Z,100.00
2024-04-23T21:58:44.593Z,100.00
2024-04-23T22:01:47.147Z,100.00
2024-04-23T22:04:49.715Z,100.00
2024-04-23T22:07:52.210Z,100.00
2024-04-23T22:10:54.894Z,100.00
2024-04-23T22:13:57.500Z,100.00
2024-04-23T22:17:00.034Z,100.00
2024-04-23T22:20:02.676Z,100.00
2024-04-23T22:23:05.303Z,100.00
2024-04-23T22:26:07.885Z,100.00
2024-04-23T22:29:10.380Z,100.00
2024-04-23T22:32:12.898Z,100.00
2024-04-23T22:35:15.603Z,100.00
2024-04-23T22:38:18.121Z,100.00
2024-04-23T22:41:20.810Z,100.00
2024-04-23T22:44:23.443Z,100.00
2024-04-23T22:47:26.300Z,100.00
2024-04-23T22:50:28.878Z,100.00
2024-04-23T22:53:31.621Z,100.00
2024-04-23T22:56:34.065Z,100.00
2024-04-23T22:59:36.489Z,100.00
2024-04-23T23:02:39.013Z,100.00
2024-04-23T23:05:41.511Z,100.00
2024-04-23T23:08:43.910Z,100.00
2024-04-23T23:11:46.412Z,100.00
2024-04-23T23:14:48.843Z,100.00
2024-04-23T23:17:51.671Z,100.00
2024-04-23T23:20:54.848Z,100.00
2024-04-23T23:23:57.268Z,100.00
2024-04-23T23:26:59.707Z,100.00
2024-04-23T23:30:02.184Z,100.00
2024-04-23T23:33:05.071Z,100.00
2024-04-23T23:36:07.740Z,100.00
2024-04-23T23:39:10.109Z,100.00
2024-04-23T23:42:12.557Z,100.00
2024-04-23T23:45:14.987Z,100.00
2024-04-23T23:48:17.666Z,100.00
2024-04-23T23:51:20.216Z,100.00
2024-04-23T23:54:22.728Z,100.00
2024-04-23T23:57:25.130Z,100.00
